Flight Track Log - Related Links

Times and Time Zones

All times are in EDT time to prevent confusion due to time zone crossing. See the EJA839 flight status page for this flight to view local times or setup timezone preferences in your user account.

Time Position Orientation Groundspeed Altitude Reporting Facility
EDT Latitude Longitude Course Direction KTS MPH feet Rate Location/Type
Tue 05:15:26 PM 38.9000 -77.5667 210° Southwest 285 328 4,400  Level Potomac TRACON
Tue 05:16:27 PM 38.8333 -77.6167 210° Southwest 285 328 7,000 1,537 Climbing Potomac TRACON
Tue 05:17:27 PM 38.7500 -77.6333 189° South 292 336 7,500 1,169 Climbing Potomac TRACON
Tue 05:18:25 PM 38.6869 -77.6661 202° Southwest 285 328 9,300 2,379 Climbing Washington Center
Tue 05:19:23 PM 38.6072 -77.6931 195° South 285 328 12,100 2,521 Climbing Washington Center
Tue 05:20:00 PM 38.5161 -77.7046 210° Southwest  Level FlightAware Approximate
Tue 05:20:24 PM 38.5275 -77.7228 196° South 290 334 14,300  Level Washington Center
Tue 05:21:25 PM 38.4786 -77.7797 222° Southwest 290 334 16,200 2,370 Climbing Washington Center
Tue 05:22:23 PM 38.4244 -77.8894 238° Southwest 301 346 19,000 2,571 Climbing Washington Center
Tue 05:23:24 PM 38.3747 -77.9833 236° Southwest 314 361 21,300 2,213 Climbing Washington Center
Tue 05:24:25 PM 38.3269 -78.0744 236° Southwest 314 361 23,500 1,934 Climbing Washington Center
Tue 05:25:25 PM 38.2669 -78.1517 225° Southwest 314 361 25,200 1,475 Climbing Washington Center
Tue 05:26:23 PM 38.2136 -78.2106 221° Southwest 314 361 26,400 1,059 Climbing Washington Center
Tue 05:27:24 PM 38.1303 -78.3003 220° Southwest 326 375 27,300 787 Climbing Washington Center
Tue 05:28:25 PM 38.0594 -78.3794 221° Southwest 338 389 28,000 347 Climbing Washington Center
Tue 05:29:25 PM 37.9931 -78.4533 221° Southwest 349 402 28,000  Level Washington Center
Tue 05:30:24 PM 37.9139 -78.5372 220° Southwest 349 402 28,000  Level Washington Center
Tue 05:31:25 PM 37.8283 -78.6283 220° Southwest 367 422 28,000  Level Washington Center
Tue 05:32:25 PM 37.7467 -78.7144 220° Southwest 373 429 28,000  Level Washington Center
Tue 05:33:23 PM 37.6694 -78.7978 221° Southwest 373 429 28,000  Level Washington Center
Tue 05:34:24 PM 37.5900 -78.8836 221° Southwest 373 429 28,000  Level Washington Center
Tue 05:35:25 PM 37.5192 -78.9564 219° Southwest 373 429 28,000  Level Washington Center
Tue 05:36:25 PM 37.4397 -79.0392 220° Southwest 373 429 28,000  Level Washington Center
Tue 05:37:25 PM 37.3600 -79.1244 220° Southwest 373 429 28,000  Level Washington Center
Tue 05:38:23 PM 37.2803 -79.2069 219° Southwest 373 429 28,000  Level Washington Center
Tue 05:39:23 PM 37.2008 -79.2789 216° Southwest 367 422 28,000  Level Washington Center
Tue 05:40:25 PM 37.1131 -79.3503 213° Southwest 350 403 28,000  Level Washington Center
Tue 05:41:25 PM 37.0339 -79.4167 214° Southwest 350 403 28,000  Level Washington Center
Tue 05:42:24 PM 36.9525 -79.4828 213° Southwest 350 403 28,000  Level Washington Center
Tue 05:43:24 PM 36.8708 -79.5514 214° Southwest 355 409 28,000 -200 Level Washington Center
Tue 05:44:24 PM 36.7914 -79.6197 215° Southwest 355 409 27,600 -706 Descending Washington Center
Tue 05:45:23 PM 36.7186 -79.6783 213° Southwest 362 417 26,600 -1,050 Descending Washington Center
Tue 05:46:24 PM 36.6369 -79.7464 214° Southwest 362 417 25,500 -1,033 Descending Washington Center
Tue 05:47:25 PM 36.5553 -79.8144 214° Southwest 362 417 24,500 -1,000 Descending Washington Center
Tue 05:48:24 PM 36.4797 -79.8853 217° Southwest 356 410 23,500 -1,036 Descending Washington Center
Tue 05:49:44 PM 36.4111 -80.0067 235° Southwest 334 384 22,100 -643 Descending Atlanta Center
Tue 05:50:44 PM 36.4256 -80.1297 278° West 306 352 22,000 -50 Descending Atlanta Center
Tue 05:51:44 PM 36.4353 -80.2375 276° West 312 359 22,000 -200 Level Atlanta Center
Tue 05:52:44 PM 36.4450 -80.3508 276° West 322 371 21,600 -650 Descending Atlanta Center
Tue 05:53:44 PM 36.4547 -80.4639 276° West 329 379 20,700 -800 Descending Atlanta Center
Tue 05:54:44 PM 36.4364 -80.5550 256° West 301 346 20,000 -550 Descending Atlanta Center
Tue 05:55:44 PM 36.3553 -80.5661 186° South 251 289 19,600 -750 Descending Atlanta Center
Tue 05:56:44 PM 36.2653 -80.5469 170° South 282 325 18,500 -1,100 Descending Atlanta Center
Tue 05:57:44 PM 36.1747 -80.5253 169° South 305 351 17,400 -1,600 Descending Atlanta Center
Tue 05:58:44 PM 36.0717 -80.4886 164° South 340 391 15,300 -1,200 Descending Atlanta Center
Tue 05:59:44 PM 35.9878 -80.4742 172° South 331 381 15,000 -458 Descending Atlanta Center
Tue 06:00:42 PM 35.9058 -80.4597 172° South 310 357 14,400 -800 Descending Atlanta Center
Tue 06:01:44 PM 35.8200 -80.4431 171° South 318 366 13,400 -1,377 Descending Atlanta Center
Tue 06:02:44 PM 35.7544 -80.4819 206° Southwest 276 318 11,600 -1,200 Descending Atlanta Center
Tue 06:03:44 PM 35.6789 -80.4697 173° South 276 318 11,000 -600 Descending Atlanta Center
Tue 06:04:44 PM 35.6039 -80.4783 185° South 271 312 10,400 -650 Descending Atlanta Center
Tue 06:05:44 PM 35.5356 -80.4939 190° South 256 295 9,700 -800 Descending Atlanta Center
Tue 06:06:44 PM 35.4792 -80.5600 224° Southwest 255 293 8,800 -1,350 Descending Atlanta Center
Tue 06:07:44 PM 35.4436 -80.6331 239° Southwest 249 287 7,000 -1,300 Descending Atlanta Center
Tue 06:08:44 PM 35.4053 -80.6781 224° Southwest 222 255 6,200 -950 Descending Atlanta Center
Tue 06:09:44 PM 35.3792 -80.7172 231° Southwest 171 197 5,100 -875 Descending Atlanta Center
Tue 06:11:08 PM 35.3431 -80.7669 228° Southwest 144 166 4,100 -745 Descending Atlanta Center
Tue 06:12:09 PM 35.3128 -80.8089 229° Southwest 167 192 3,300 -836 Descending Atlanta Center
Tue 06:13:10 PM 35.2806 -80.8533 228° Southwest 182 209 2,400 -787 Descending Atlanta Center
Tue 06:14:11 PM 35.2544 -80.8900 229° Southwest 139 160 1,700 -656 Descending Atlanta Center
Tue 06:15:18 PM 35.2322 -80.9214 229° Southwest 97 112 1,000 -627 Descending Atlanta Center
Tue 06:17:00 PM 35.2000 -80.9333 227° Southwest  Level FlightAware Approximate

Login

Don't have an account? Register now (free) for customized features, flight alerts, and more!